• Join FlightAware (Why Join?)
  • Login
  • US Flag 
10:44AM EST


 

Airport Tracker/Info


-or-


 

Live Flight TrackerFlight Track Log ✈ AWE1967 ✈ 02-May-2012 ✈ KCLT - MDPC / PUJ

Flight Track Log - Related Links

Times and Time Zones

All times are in EDT time to prevent confusion due to time zone crossing. See the AWE1967 flight status page for this flight to view local times or setup timezone preferences in your user account.

Time Position Orientation Groundspeed Altitude Reporting Facility
EDT Latitude Longitude Course Direction KTS MPH feet Rate Location/Type
12:46PM 35.1894 -80.9298 222° Southwest  Level FlightAware Approximate
12:47PM 35.0725 -80.9037 340° North  Level FlightAware Approximate
12:47PM 35.1725 -80.9486 187° South 181 208 2,500  Level FAA TRACON SMA TRACON (SMA)
12:48PM 35.1336 -80.9544 196° South 207 238 3,000 889 Climbing FAA TRACON SMA TRACON (SMA)
12:49PM 35.0903 -80.9697 209° Southwest 245 282 3,700 1,658 Climbing FAA TRACON SMA TRACON (SMA)
12:49PM 35.0461 -80.9994 180° South 267 307 5,100 2,488 Climbing FAA TRACON SMA TRACON (SMA)
12:50PM 34.9931 -81.0000 164° South 270 311 7,100 2,175 Climbing FAA TRACON SMA TRACON (SMA)
12:51PM 34.9536 -80.9861 164° South 273 314 8,000 1,615 Climbing FAA TRACON SMA TRACON (SMA)
12:51PM 34.9008 -80.9678 164° South 280 322 9,200 1,852 Climbing FAA TRACON SMA TRACON (SMA)
12:52PM 34.8403 -80.9464 163° South 291 335 10,500 1,500 Climbing FAA TRACON SMA TRACON (SMA)
12:53PM 34.7881 -80.9275 164° South 307 353 11,200 1,443 Climbing FAA TRACON SMA TRACON (SMA)
12:53PM 34.7333 -80.9089 170° South 330 380 12,400 1,823 Climbing FAA TRACON SMA TRACON (SMA)
12:54PM 34.6644 -80.8944 176° South 340 391 13,600 1,926 Climbing FAA TRACON SMA TRACON (SMA)
12:55PM 34.6000 -80.8892 187° South 344 396 15,000 1,786 Climbing FAA TRACON SMA TRACON (SMA)
12:55PM 34.5364 -80.8981 186° South 348 400 16,100 1,595 Climbing FAA TRACON SMA TRACON (SMA)
12:56PM 34.4836 -80.9053 186° South 352 405 17,100 1,558 Climbing FAA TRACON SMA TRACON (SMA)
12:57PM 34.4075 -80.9150 186° South 355 409 18,100 1,037 Climbing FAA TRACON SMA TRACON (SMA)
12:57PM 34.3356 -80.9242 186° South 370 426 18,500 450 Climbing FAA TRACON SMA TRACON (SMA)
12:58PM 34.3011 -80.9283 186° South 388 447 18,700 1,109 Climbing FAA TRACON SMA TRACON (SMA)
12:59PM 34.1117 -80.9539 186° South 402 463 20,700 1,381 Climbing Jacksonville Center
01:00PM 33.9969 -80.9689 186° South 418 481 21,900 1,100 Climbing Jacksonville Center
01:01PM 33.8742 -80.9839 186° South 429 494 22,900 950 Climbing Jacksonville Center
01:02PM 33.7556 -80.9992 187° South 434 499 23,800 900 Climbing Jacksonville Center
01:03PM 33.6306 -81.0167 186° South 445 512 24,700 900 Climbing Jacksonville Center
01:04PM 33.5033 -81.0319 186° South 450 518 25,600 950 Climbing Jacksonville Center
01:05PM 33.3764 -81.0469 187° South 461 531 26,600 1,100 Climbing Jacksonville Center
01:06PM 33.2492 -81.0669 186° South 466 536 27,800 950 Climbing Jacksonville Center
01:07PM 33.1222 -81.0819 185° South 461 531 28,500 950 Climbing Jacksonville Center
01:08PM 33.0075 -81.0942 186° South 461 531 29,700 750 Climbing Jacksonville Center
01:09PM 32.8783 -81.1117 183° South 461 531 30,000 150 Climbing Jacksonville Center
01:10PM 32.7533 -81.1192 181° South 461 531 30,000  Level Jacksonville Center
01:11PM 32.6114 -81.1219 179° South 461 531 30,000  Level Jacksonville Center
01:12PM 32.4964 -81.1192 179° South 461 531 30,000  Level Jacksonville Center
01:13PM 32.3669 -81.1167 181° South 461 531 30,000  Level Jacksonville Center
01:14PM 32.2375 -81.1192 179° South 460 529 30,000 -50 Level Jacksonville Center
01:15PM 32.1081 -81.1169 180° South 460 529 29,900  Descending Jacksonville Center
01:16PM 31.9808 -81.1169 180° South 460 529 30,000 50 Climbing Jacksonville Center
01:17PM 31.8533 -81.1169 180° South 453 521 30,000  Level Jacksonville Center
01:18PM 31.7136 -81.1169 180° South 459 528 30,000  Level Jacksonville Center
01:19PM 31.5819 -81.1172 180° South 459 528 30,000  Level Jacksonville Center
01:20PM 31.4692 -81.1169 179° South 459 528 30,000  Level Jacksonville Center
01:21PM 31.3211 -81.1125 182° South 459 528 30,000  Level Jacksonville Center
01:22PM 31.1958 -81.1172 180° South 465 535 30,000 -50 Level Jacksonville Center
01:23PM 31.0664 -81.1172 179° South 465 535 29,900 -50 Descending Jacksonville Center
01:24PM 30.9389 -81.1147 179° South 465 535 29,900  Level Jacksonville Center
01:25PM 30.8075 -81.1125 181° South 460 529 29,900 50 Level Jacksonville Center
01:26PM 30.6800 -81.1147 180° South 460 529 30,000 50 Climbing Jacksonville Center
01:27PM 30.5547 -81.1147 180° South 460 529 30,000  Level Jacksonville Center
01:28PM 30.4253 -81.1147 180° South 460 529 30,000 -50 Level Jacksonville Center
01:29PM 30.2981 -81.1147 180° South 460 529 29,900 -50 Descending Jacksonville Center
01:30PM 30.1706 -81.1147 181° South 460 529 29,900 50 Level Jacksonville Center
01:31PM 30.0411 -81.1169 180° South 460 529 30,000 50 Climbing Jacksonville Center
01:32PM 29.9117 -81.1169 180° South 460 529 30,000  Level Jacksonville Center
01:33PM 29.7844 -81.1169 180° South 460 529 30,000  Level Jacksonville Center
01:34PM 29.6550 -81.1169 179° South 460 529 30,000  Level Jacksonville Center
01:35PM 29.5275 -81.1144 180° South 460 529 30,000  Level Jacksonville Center
01:36PM 29.4025 -81.1142 157° South 460 529 30,000  Level Jacksonville Center
01:38PM 29.2186 -81.0242 137° Southeast 445 512 30,000  Level Miami Center
01:39PM 29.1256 -80.9233 135° Southeast 445 512 30,000  Level Miami Center
01:40PM 29.0325 -80.8178 137° Southeast 457 526 30,000  Level Miami Center
01:41PM 28.9372 -80.7172 135° Southeast 464 534 30,000  Level Miami Center
01:42PM 28.8381 -80.6025 126° Southeast 463 533 30,000  Level Miami Center
01:43PM 28.7619 -80.4839 125° Southeast 458 527 30,000  Level Miami Center
01:44PM 28.6878 -80.3631 123° Southeast 463 533 30,000  Level Miami Center
01:45PM 28.6236 -80.2525 124° Southeast 463 533 30,000  Level Miami Center
01:46PM 28.5514 -80.1297 125° Southeast 463 533 30,000  Level Miami Center
01:47PM 28.4728 -80.0000 124° Southeast 463 533 30,000  Level Miami Center
01:48PM 28.4044 -79.8847 125° Southeast 469 540 30,000  Level Miami Center
01:49PM 28.3297 -79.7647 124° Southeast 474 545 30,000  Level Miami Center
01:50PM 28.2569 -79.6403 126° Southeast 474 545 30,000  Level Miami Center
01:51PM 28.1800 -79.5183 125° Southeast 474 545 30,000  Level Miami Center
01:52PM 28.1050 -79.3964 125° Southeast 474 545 30,000  Level Miami Center
01:53PM 28.0236 -79.2631 125° Southeast 474 545 30,000  Level Miami Center
01:54PM 27.9486 -79.1414 125° Southeast 474 545 30,000  Level Miami Center
01:55PM 27.8875 -79.0414 124° Southeast 474 545 30,000  Level Miami Center
01:56PM 27.8039 -78.8992 126° Southeast 469 540 30,000 300 Level Miami Center
01:57PM 27.7261 -78.7781 126° Southeast 474 545 30,600 500 Climbing Miami Center
01:58PM 27.6464 -78.6547 125° Southeast 480 552 31,000 200 Climbing Miami Center
01:59PM 27.5706 -78.5317 122° Southeast 480 552 31,000  Level Miami Center
02:00PM 27.5008 -78.4067 130° Southeast 480 552 31,000  Level Miami Center
02:01PM 27.4164 -78.2931 131° Southeast 468 539 31,000  Level Miami Center
02:02PM 27.3297 -78.1822 131° Southeast 468 539 31,000  Level Miami Center
02:03PM 27.2533 -78.0831 134° Southeast 468 539 31,000  Level Miami Center
02:04PM 27.1644 -77.9794 131° Southeast 466 536 31,000  Level Miami Center
02:05PM 27.0756 -77.8642 131° Southeast 471 542 31,000  Level Miami Center
02:06PM 26.9883 -77.7517 133° Southeast 478 550 31,000  Level Miami Center
02:07PM 26.9014 -77.6461 131° Southeast 469 540 31,000  Level Miami Center
02:08PM 26.8119 -77.5292 132° Southeast 475 547 31,000  Level Miami Center
02:09PM 26.7144 -77.4075 131° Southeast 475 547 31,000  Level Miami Center
02:10PM 26.6269 -77.2956 134° Southeast 475 547 31,000  Level Miami Center
02:11PM 26.5394 -77.1931 131° Southeast 475 547 31,000  Level Miami Center
02:12PM 26.4500 -77.0792 132° Southeast 476 548 31,000  Level Miami Center
02:13PM 26.3622 -76.9722 133° Southeast 471 542 31,000  Level Miami Center
02:14PM 26.2703 -76.8611 131° Southeast 471 542 31,000  Level Miami Center
02:15PM 26.1825 -76.7497 133° Southeast 476 548 31,000  Level Miami Center
02:16PM 26.0925 -76.6436 132° Southeast 471 542 31,000  Level Miami Center
02:17PM 26.0044 -76.5350 132° Southeast 477 549 31,000  Level Miami Center
02:18PM 25.9167 -76.4267 133° Southeast 477 549 31,000  Level Miami Center
02:19PM 25.8264 -76.3183 132° Southeast 472 543 31,000  Level Miami Center
02:20PM 25.7403 -76.2106 134° Southeast 473 544 31,000  Level Miami Center
02:21PM 25.6436 -76.0981 132° Southeast 485 558 31,000  Level Miami Center
02:22PM 25.5614 -75.9972 133° Southeast 485 558 31,000  Level Miami Center
02:23PM 25.4689 -75.8872 133° Southeast 485 558 31,000  Level Miami Center
02:24PM 25.3739 -75.7731 133° Southeast 496 571 31,000  Level Miami Center
02:25PM 25.2811 -75.6636 133° Southeast 496 571 31,000  Level Miami Center
02:26PM 25.1797 -75.5453 132° Southeast 484 557 31,000  Level Miami Center
02:27PM 25.0869 -75.4314 134° Southeast 484 557 31,000  Level Miami Center
02:28PM 24.9917 -75.3225 132° Southeast 491 565 31,000  Level Miami Center
02:29PM 24.8942 -75.2047 133° Southeast 491 565 31,000  Level Miami Center
02:30PM 24.8011 -75.0939 133° Southeast 491 565 31,000  Level Miami Center
02:31PM 24.7056 -74.9808 133° Southeast 491 565 31,000  Level Miami Center
02:32PM 24.6122 -74.8703 134° Southeast 491 565 31,000  Level Miami Center
02:33PM 24.5167 -74.7597 133° Southeast 491 565 31,000  Level Miami Center
02:34PM 24.4208 -74.6472 132° Southeast 491 565 31,000  Level Miami Center
02:35PM 24.3272 -74.5350 134° Southeast 491 565 31,000  Level Miami Center
02:36PM 24.2294 -74.4228 133° Southeast 496 571 31,000  Level Miami Center
02:37PM 24.1356 -74.3131 133° Southeast 496 571 31,000  Level Miami Center
02:38PM 24.0417 -74.2014 134° Southeast 496 571 31,000  Level Miami Center
02:39PM 23.9436 -74.0919 133° Southeast 496 571 31,000  Level Miami Center
02:40PM 23.8667 -74.0028 133° Southeast 496 571 31,000  Level Miami Center
02:41PM 23.7661 -73.8847 135° Southeast 496 571 31,000  Level Miami Center
02:42PM 23.6678 -73.7761 132° Southeast 496 571 31,000  Level Miami Center
02:43PM 23.5758 -73.6650 135° Southeast 496 571 31,000  Level Miami Center
02:44PM 23.4794 -73.5586 134° Southeast 496 571 31,000  Level Miami Center
02:45PM 23.3850 -73.4503 133° Southeast 496 571 31,000  Level Miami Center
02:46PM 23.2906 -73.3419 134° Southeast 491 565 31,000  Level Miami Center
02:47PM 23.1961 -73.2339 133° Southeast 491 565 31,000  Level Miami Center
02:48PM 23.1039 -73.1258 138° Southeast 491 565 31,000  Level Miami Center
02:49PM 22.9861 -73.0119 132° Southeast 503 579 31,000  Level Miami Center
02:50PM 22.8956 -72.9019 134° Southeast 503 579 31,000  Level Miami Center
02:51PM 22.8031 -72.7989 134° Southeast 497 572 31,000  Level Miami Center
02:52PM 22.7061 -72.6917 133° Southeast 497 572 31,000  Level Miami Center
02:53PM 22.6111 -72.5800 135° Southeast 497 572 31,000  Level Miami Center
02:54PM 22.5119 -72.4733 134° Southeast 497 572 31,000  Level Miami Center
02:55PM 22.4147 -72.3642 134° Southeast 497 572 31,000  Level Miami Center
02:56PM 22.3197 -72.2575 135° Southeast 497 572 31,000  Level Miami Center
02:57PM 22.2225 -72.1511 133° Southeast 497 572 31,000  Level Miami Center
02:58PM 22.1272 -72.0425 134° Southeast 497 572 31,000  Level Miami Center
02:59PM 22.0300 -71.9342 135° Southeast 497 572 31,000  Level Miami Center
03:00PM 21.9328 -71.8303 134° Southeast 497 572 31,000  Level Miami Center
03:01PM 21.8372 -71.7244 134° Southeast 497 572 31,000  Level Miami Center
03:02PM 21.7397 -71.6167 135° Southeast 497 572 31,000  Level Miami Center
03:03PM 21.6400 -71.5089 134° Southeast 497 572 31,000  Level Miami Center
03:04PM 21.5425 -71.4014 135° Southeast 502 578 31,000  Level Miami Center
03:05PM 21.4428 -71.2961 136° Southeast 502 578 31,000  Level Miami Center
03:06PM 21.3472 -71.1956 133° Southeast 502 578 31,000  Level Miami Center
03:07PM 21.2492 -71.0819 134° Southeast 517 595 31,000  Level Miami Center
03:08PM 21.1511 -70.9728 134° Southeast 515 593 31,000  Level Miami Center
03:09PM 21.0511 -70.8636 135° Southeast 515 593 31,000  Level Miami Center
03:10PM 20.9508 -70.7550 134° Southeast 515 593 31,000  Level Miami Center
03:11PM 20.8528 -70.6464 135° Southeast 515 593 31,000  Level Miami Center
03:12PM 20.7525 -70.5400 135° Southeast 515 593 31,000  Level Miami Center
03:13PM 20.6522 -70.4339 134° Southeast 515 593 31,000  Level Miami Center
03:14PM 20.5519 -70.3236 135° Southeast 515 593 31,000  Level Miami Center
03:15PM 20.4536 -70.2200 134° Southeast 515 593 31,000 -300 Level Miami Center
03:16PM 20.3553 -70.1119 134° Southeast 515 593 30,400 -800 Descending Miami Center
03:17PM 20.2569 -70.0042 135° Southeast 510 587 29,400 -1,000 Descending Miami Center
03:18PM 20.1606 -69.9011 135° Southeast 510 587 28,400 -1,000 Descending Miami Center
03:19PM 20.0667 -69.8000 135° Southeast 499 574 27,400 -700 Descending Miami Center
03:20PM 19.9725 -69.7011 138° Southeast 487 560 27,000 -400 Descending Miami Center
03:28PM 19.2463 -69.0129 138° Southeast  Level FlightAware Approximate
03:29PM 19.1539 -68.9246 138° Southeast  Level FlightAware Approximate
03:30PM 19.0614 -68.8370 139° Southeast  Level FlightAware Approximate
03:31PM 18.9675 -68.7508 138° Southeast  Level FlightAware Approximate
03:32PM 18.8754 -68.6623 141° Southeast  Level FlightAware Approximate
03:33PM 18.7790 -68.5801 138° Southeast  Level FlightAware Approximate
03:34PM 18.6904 -68.4970 135° Southeast  Level FlightAware Approximate
03:35PM 18.6035 -68.4047 119° Southeast  Level FlightAware Approximate
03:36PM 18.5667 -68.3333 271° West  Level FlightAware Approximate
03:37PM 18.5697 -68.4646 64° Northeast  Level Estimated
03:38PM 18.6000 -68.4000 64° Northeast  Level FlightAware Approximate